Wetterstation Vordersexau
Wetterdaten: Woche 25.06.18 - 01.07.18 (KW26)
Datum Zeit Temp. A. Feuchte A. Luftdruck Regen Wind Richtung Taupunkt Windchill Windben
25.06.2018 00:00 14,7 C 71 % 1017,7 hPa 0,0 l/m 0,0 km/h NO 9,5 C 14,7 C 0,0 km/h
25.06.2018 01:00 13,8 C 74 % 1017,7 hPa 0,0 l/m 0,0 km/h O-NO 9,2 C 13,8 C 0,0 km/h
25.06.2018 02:00 13,4 C 76 % 1017,8 hPa 0,0 l/m 0,0 km/h O-NO 9,3 C 13,4 C 0,0 km/h
25.06.2018 03:00 13,3 C 77 % 1017,8 hPa 0,0 l/m 0,0 km/h O-NO 9,4 C 13,3 C 0,0 km/h
25.06.2018 04:00 13,3 C 78 % 1017,9 hPa 0,0 l/m 0,0 km/h O-NO 9,5 C 13,3 C 0,0 km/h
25.06.2018 05:00 13,5 C 80 % 1018,2 hPa 0,0 l/m 0,0 km/h O-NO 10,1 C 13,5 C 0,0 km/h
25.06.2018 06:00 13,8 C 81 % 1018,3 hPa 0,0 l/m 0,0 km/h O-NO 10,6 C 13,8 C 0,0 km/h
25.06.2018 07:00 14,9 C 78 % 1018,6 hPa 0,0 l/m 0,0 km/h W-SW 11,1 C 14,9 C 0,0 km/h
25.06.2018 08:00 16,1 C 74 % 1019,1 hPa 0,0 l/m 0,0 km/h W-NW 11,5 C 16,1 C 0,0 km/h
25.06.2018 09:00 18,3 C 68 % 1019,1 hPa 0,0 l/m 0,0 km/h N-NO 12,3 C 18,3 C 0,0 km/h
25.06.2018 10:00 19,6 C 60 % 1019,3 hPa 0,0 l/m 0,0 km/h N-NO 11,6 C 19,6 C 0,0 km/h
25.06.2018 11:00 20,3 C 58 % 1019,5 hPa 0,0 l/m 0,0 km/h N 11,8 C 20,3 C 0,0 km/h
25.06.2018 12:00 20,9 C 51 % 1019,4 hPa 0,0 l/m 13,0 km/h O-NO 10,4 C 18,8 C 7,2 km/h
25.06.2018 13:00 21,8 C 49 % 1019,2 hPa 0,0 l/m 0,0 km/h NO 10,6 C 21,8 C 0,0 km/h
25.06.2018 14:00 23,0 C 50 % 1019,0 hPa 0,0 l/m 0,0 km/h N 12,0 C 23,0 C 0,0 km/h
25.06.2018 15:00 22,9 C 50 % 1018,9 hPa 0,0 l/m 20,7 km/h N 11,9 C 19,9 C 11,5 km/h
25.06.2018 16:00 23,3 C 49 % 1018,8 hPa 0,0 l/m 20,1 km/h N-NW 12,0 C 20,5 C 11,2 km/h
25.06.2018 17:00 23,2 C 48 % 1018,6 hPa 0,0 l/m 2,6 km/h NW 11,6 C 23,2 C 1,4 km/h
25.06.2018 18:00 23,1 C 48 % 1018,5 hPa 0,0 l/m 14,9 km/h N-NO 11,5 C 21,0 C 8,3 km/h
25.06.2018 19:00 22,2 C 49 % 1018,7 hPa 0,0 l/m 10,4 km/h N-NW 11,0 C 21,0 C 5,8 km/h
25.06.2018 20:00 21,2 C 50 % 1019,2 hPa 0,0 l/m 3,2 km/h N-NO 10,4 C 21,2 C 1,8 km/h
25.06.2018 21:00 19,3 C 54 % 1019,7 hPa 0,0 l/m 0,0 km/h O-SO 9,8 C 19,3 C 0,0 km/h
25.06.2018 22:00 17,0 C 62 % 1020,1 hPa 0,0 l/m 0,0 km/h O-SO 9,7 C 17,0 C 0,0 km/h
25.06.2018 23:00 15,1 C 67 % 1020,1 hPa 0,0 l/m 0,0 km/h O-SO 9,0 C 15,1 C 0,0 km/h
26.06.2018 00:00 14,4 C 71 % 1020,3 hPa 0,0 l/m 0,0 km/h O-SO 9,2 C 14,4 C 0,0 km/h
26.06.2018 01:00 13,9 C 73 % 1020,3 hPa 0,0 l/m 0,0 km/h O-SO 9,1 C 13,9 C 0,0 km/h
26.06.2018 02:00 12,7 C 76 % 1020,2 hPa 0,0 l/m 0,0 km/h O 8,6 C 12,7 C 0,0 km/h
26.06.2018 03:00 11,8 C 78 % 1020,0 hPa 0,0 l/m 0,0 km/h O 8,1 C 11,8 C 0,0 km/h
26.06.2018 04:00 11,3 C 80 % 1019,6 hPa 0,0 l/m 0,0 km/h O 8,0 C 11,3 C 0,0 km/h
26.06.2018 05:00 10,9 C 82 % 1019,7 hPa 0,0 l/m 0,0 km/h O-NO 7,9 C 10,9 C 0,0 km/h
26.06.2018 06:00 11,8 C 82 % 1020,0 hPa 0,0 l/m 0,0 km/h O-NO 8,8 C 11,8 C 0,0 km/h
26.06.2018 07:00 14,5 C 78 % 1020,1 hPa 0,0 l/m 0,0 km/h W-NW 10,7 C 14,5 C 0,0 km/h
26.06.2018 08:00 16,6 C 74 % 1020,1 hPa 0,0 l/m 0,0 km/h W 11,9 C 16,6 C 0,0 km/h
26.06.2018 09:00 18,8 C 67 % 1020,0 hPa 0,0 l/m 0,0 km/h S-SW 12,5 C 18,8 C 0,0 km/h
26.06.2018 10:00 20,8 C 62 % 1019,9 hPa 0,0 l/m 6,5 km/h W-SW 13,2 C 20,8 C 3,6 km/h
26.06.2018 11:00 22,8 C 55 % 1019,4 hPa 0,0 l/m 12,3 km/h W 13,3 C 21,2 C 6,8 km/h
26.06.2018 12:00 23,8 C 52 % 1018,9 hPa 0,0 l/m 0,0 km/h N-NO 13,3 C 23,8 C 0,0 km/h
26.06.2018 13:00 25,3 C 48 % 1018,6 hPa 0,0 l/m 7,8 km/h N-NW 13,5 C 25,0 C 4,3 km/h
26.06.2018 14:00 25,8 C 46 % 1018,2 hPa 0,0 l/m 0,0 km/h N-NO 13,3 C 25,8 C 0,0 km/h
26.06.2018 15:00 25,8 C 48 % 1017,8 hPa 0,0 l/m 3,9 km/h NO 13,9 C 25,8 C 2,2 km/h
26.06.2018 16:00 26,7 C 46 % 1017,8 hPa 0,0 l/m 0,0 km/h N 14,1 C 26,7 C 0,0 km/h
26.06.2018 17:00 25,9 C 48 % 1017,5 hPa 0,0 l/m 7,1 km/h NO 14,0 C 25,7 C 4,0 km/h
26.06.2018 18:00 25,4 C 50 % 1017,8 hPa 0,0 l/m 0,0 km/h NO 14,2 C 25,4 C 0,0 km/h
26.06.2018 19:00 24,1 C 51 % 1017,9 hPa 0,0 l/m 0,0 km/h N-NO 13,3 C 24,1 C 0,0 km/h
26.06.2018 20:00 23,2 C 53 % 1018,2 hPa 0,0 l/m 0,0 km/h NO 13,1 C 23,2 C 0,0 km/h
26.06.2018 21:00 21,3 C 58 % 1018,6 hPa 0,0 l/m 0,0 km/h N-NO 12,7 C 21,3 C 0,0 km/h
26.06.2018 22:00 20,2 C 61 % 1019,1 hPa 0,0 l/m 0,0 km/h O-SO 12,4 C 20,2 C 0,0 km/h
26.06.2018 23:00 18,4 C 65 % 1018,7 hPa 0,0 l/m 0,0 km/h O-SO 11,7 C 18,4 C 0,0 km/h
27.06.2018 00:00 17,0 C 68 % 1018,6 hPa 0,0 l/m 0,0 km/h NO 11,0 C 17,0 C 0,0 km/h
27.06.2018 01:00 17,5 C 70 % 1018,3 hPa 0,0 l/m 0,0 km/h NO 12,0 C 17,5 C 0,0 km/h
27.06.2018 02:00 17,6 C 69 % 1018,1 hPa 0,0 l/m 5,2 km/h NO 11,8 C 17,6 C 2,9 km/h
27.06.2018 03:00 16,9 C 70 % 1018,2 hPa 0,0 l/m 0,0 km/h SO 11,4 C 16,9 C 0,0 km/h
27.06.2018 04:00 15,3 C 74 % 1018,1 hPa 0,0 l/m 3,2 km/h O-SO 10,7 C 15,3 C 1,8 km/h
27.06.2018 05:00 14,6 C 76 % 1018,5 hPa 0,0 l/m 0,0 km/h O-SO 10,4 C 14,6 C 0,0 km/h
27.06.2018 06:00 15,1 C 78 % 1018,9 hPa 0,0 l/m 0,0 km/h O-SO 11,3 C 15,1 C 0,0 km/h
27.06.2018 07:00 17,6 C 74 % 1019,0 hPa 0,0 l/m 0,0 km/h W-SW 12,9 C 17,6 C 0,0 km/h
27.06.2018 08:00 19,3 C 71 % 1019,0 hPa 0,0 l/m 0,0 km/h N 13,9 C 19,3 C 0,0 km/h
27.06.2018 09:00 22,1 C 57 % 1018,5 hPa 0,0 l/m 18,1 km/h N-NO 13,2 C 19,2 C 10,1 km/h
27.06.2018 10:00 23,7 C 47 % 1018,2 hPa 0,0 l/m 5,2 km/h N 11,7 C 23,7 C 2,9 km/h
27.06.2018 11:00 25,2 C 43 % 1017,9 hPa 0,0 l/m 19,4 km/h N-NO 11,7 C 23,0 C 10,8 km/h
27.06.2018 12:00 25,8 C 42 % 1017,5 hPa 0,0 l/m 11,7 km/h NO 11,9 C 24,8 C 6,5 km/h
27.06.2018 13:00 26,6 C 39 % 1016,8 hPa 0,0 l/m 7,1 km/h N 11,5 C 26,5 C 4,0 km/h
27.06.2018 14:00 26,3 C 40 % 1016,4 hPa 0,0 l/m 4,5 km/h N-NO 11,6 C 26,3 C 2,5 km/h
27.06.2018 15:00 25,6 C 45 % 1016,1 hPa 0,0 l/m 16,8 km/h N-NO 12,8 C 23,8 C 9,4 km/h
27.06.2018 16:00 26,4 C 41 % 1015,9 hPa 0,0 l/m 19,4 km/h N 12,1 C 24,5 C 10,8 km/h
27.06.2018 17:00 26,6 C 39 % 1015,2 hPa 0,0 l/m 0,0 km/h N 11,5 C 26,6 C 0,0 km/h
27.06.2018 18:00 25,4 C 39 % 1015,3 hPa 0,0 l/m 2,6 km/h N-NO 10,4 C 25,4 C 1,4 km/h
27.06.2018 19:00 25,3 C 40 % 1015,5 hPa 0,0 l/m 0,0 km/h NO 10,7 C 25,3 C 0,0 km/h
27.06.2018 20:00 23,4 C 38 % 1015,8 hPa 0,0 l/m 0,0 km/h NO 8,3 C 23,4 C 0,0 km/h
27.06.2018 21:00 21,1 C 43 % 1016,2 hPa 0,0 l/m 0,0 km/h NO 8,0 C 21,1 C 0,0 km/h
27.06.2018 22:00 19,0 C 49 % 1016,2 hPa 0,0 l/m 0,0 km/h NO 8,0 C 19,0 C 0,0 km/h
27.06.2018 23:00 16,5 C 56 % 1016,4 hPa 0,0 l/m 0,0 km/h O-NO 7,7 C 16,5 C 0,0 km/h
28.06.2018 00:00 17,8 C 56 % 1016,5 hPa 0,0 l/m 0,0 km/h O-NO 8,9 C 17,8 C 0,0 km/h
28.06.2018 01:00 19,4 C 49 % 1016,3 hPa 0,0 l/m 0,0 km/h NO 8,4 C 19,4 C 0,0 km/h
28.06.2018 02:00 18,5 C 51 % 1016,0 hPa 0,0 l/m 0,0 km/h NO 8,2 C 18,5 C 0,0 km/h
28.06.2018 03:00 17,4 C 54 % 1015,8 hPa 0,0 l/m 0,0 km/h SO 8,0 C 17,4 C 0,0 km/h
28.06.2018 04:00 16,6 C 55 % 1015,9 hPa 0,0 l/m 0,0 km/h N 7,5 C 16,6 C 0,0 km/h
28.06.2018 05:00 15,9 C 57 % 1016,0 hPa 0,0 l/m 0,0 km/h NO 7,4 C 15,9 C 0,0 km/h
28.06.2018 06:00 16,9 C 57 % 1016,1 hPa 0,0 l/m 2,6 km/h NO 8,3 C 16,9 C 1,4 km/h
28.06.2018 07:00 18,4 C 55 % 1015,9 hPa 0,0 l/m 0,0 km/h NO 9,2 C 18,4 C 0,0 km/h
28.06.2018 08:00 19,9 C 52 % 1016,0 hPa 0,0 l/m 0,0 km/h NO 9,7 C 19,9 C 0,0 km/h
28.06.2018 09:00 21,5 C 49 % 1015,7 hPa 0,0 l/m 1,9 km/h N-NO 10,3 C 21,5 C 1,1 km/h
28.06.2018 10:00 22,3 C 48 % 1015,6 hPa 0,0 l/m 18,8 km/h NO 10,8 C 19,4 C 10,4 km/h
28.06.2018 11:00 23,1 C 46 % 1015,6 hPa 0,0 l/m 14,9 km/h O-NO 10,8 C 21,0 C 8,3 km/h
28.06.2018 12:00 23,3 C 47 % 1015,5 hPa 0,0 l/m 9,1 km/h NO 11,3 C 22,5 C 5,0 km/h
28.06.2018 13:00 24,4 C 44 % 1014,9 hPa 0,0 l/m 0,0 km/h O-NO 11,3 C 24,4 C 0,0 km/h
28.06.2018 14:00 22,7 C 50 % 1015,4 hPa 0,0 l/m 8,4 km/h NO 11,7 C 22,1 C 4,7 km/h
28.06.2018 15:00 23,1 C 49 % 1014,8 hPa 0,0 l/m 9,1 km/h NO 11,8 C 22,3 C 5,0 km/h
28.06.2018 16:00 22,6 C 51 % 1014,5 hPa 0,0 l/m 0,6 km/h NO 11,9 C 22,6 C 0,4 km/h
28.06.2018 17:00 22,8 C 49 % 1014,6 hPa 0,0 l/m 6,5 km/h O-NO 11,5 C 22,8 C 3,6 km/h
28.06.2018 18:00 22,5 C 49 % 1014,4 hPa 0,0 l/m 0,0 km/h O-NO 11,2 C 22,5 C 0,0 km/h
28.06.2018 19:00 21,8 C 51 % 1014,2 hPa 0,0 l/m 0,0 km/h O-NO 11,2 C 21,8 C 0,0 km/h
28.06.2018 20:00 21,2 C 54 % 1013,9 hPa 0,0 l/m 0,0 km/h O-NO 11,5 C 21,2 C 0,0 km/h
28.06.2018 21:00 20,2 C 58 % 1014,4 hPa 0,0 l/m 0,0 km/h NO 11,7 C 20,2 C 0,0 km/h
28.06.2018 22:00 19,7 C 61 % 1014,6 hPa 0,0 l/m 0,0 km/h NO 12,0 C 19,7 C 0,0 km/h
28.06.2018 23:00 19,5 C 63 % 1014,1 hPa 0,0 l/m 0,0 km/h N-NO 12,3 C 19,5 C 0,0 km/h
29.06.2018 00:00 18,7 C 66 % 1013,9 hPa 0,0 l/m 0,0 km/h N-NO 12,2 C 18,7 C 0,0 km/h
29.06.2018 01:00 18,4 C 68 % 1013,6 hPa 0,0 l/m 3,2 km/h NO 12,4 C 18,4 C 1,8 km/h
29.06.2018 02:00 18,4 C 70 % 1013,8 hPa 0,0 l/m 0,6 km/h O-NO 12,8 C 18,4 C 0,4 km/h
29.06.2018 03:00 17,6 C 72 % 1013,3 hPa 0,0 l/m 0,0 km/h NO 12,5 C 17,6 C 0,0 km/h
29.06.2018 04:00 17,3 C 74 % 1013,0 hPa 0,0 l/m 0,0 km/h NO 12,6 C 17,3 C 0,0 km/h
29.06.2018 05:00 17,1 C 74 % 1012,9 hPa 0,0 l/m 0,0 km/h N-NO 12,4 C 17,1 C 0,0 km/h
29.06.2018 06:00 17,8 C 74 % 1012,5 hPa 0,0 l/m 1,9 km/h N 13,1 C 17,8 C 1,1 km/h
29.06.2018 07:00 18,8 C 72 % 1012,8 hPa 0,0 l/m 13,6 km/h O-NO 13,6 C 16,2 C 7,6 km/h
29.06.2018 08:00 19,9 C 69 % 1013,1 hPa 0,0 l/m 0,0 km/h N-NO 14,0 C 19,9 C 0,0 km/h
29.06.2018 09:00 21,4 C 65 % 1012,8 hPa 0,0 l/m 0,0 km/h N-NO 14,5 C 21,4 C 0,0 km/h
29.06.2018 10:00 22,3 C 62 % 1012,9 hPa 0,0 l/m 0,0 km/h N-NO 14,7 C 22,3 C 0,0 km/h
29.06.2018 11:00 24,0 C 59 % 1012,7 hPa 0,0 l/m 7,1 km/h NO 15,5 C 23,8 C 4,0 km/h
29.06.2018 12:00 25,6 C 55 % 1012,1 hPa 0,0 l/m 0,0 km/h SO 15,9 C 25,6 C 0,0 km/h
29.06.2018 13:00 26,8 C 53 % 1011,5 hPa 0,0 l/m 0,0 km/h O-NO 16,4 C 26,8 C 0,0 km/h
29.06.2018 14:00 27,8 C 48 % 1011,2 hPa 0,0 l/m 0,0 km/h N-NO 15,8 C 27,8 C 0,0 km/h
29.06.2018 15:00 27,7 C 49 % 1010,6 hPa 0,0 l/m 0,0 km/h O-NO 16,0 C 27,7 C 0,0 km/h
29.06.2018 16:00 28,1 C 48 % 1010,1 hPa 0,0 l/m 14,3 km/h NO 16,0 C 27,1 C 7,9 km/h
29.06.2018 17:00 28,6 C 48 % 1009,7 hPa 0,0 l/m 11,0 km/h NO 16,5 C 28,0 C 6,1 km/h
29.06.2018 18:00 28,0 C 50 % 1009,7 hPa 0,0 l/m 3,2 km/h N-NO 16,6 C 28,0 C 1,8 km/h
29.06.2018 19:00 27,6 C 50 % 1010,0 hPa 0,0 l/m 0,0 km/h NO 16,2 C 27,6 C 0,0 km/h
29.06.2018 20:00 26,3 C 53 % 1010,2 hPa 0,0 l/m 0,0 km/h NO 15,9 C 26,3 C 0,0 km/h
29.06.2018 21:00 24,5 C 56 % 1010,6 hPa 0,0 l/m 0,0 km/h O-SO 15,1 C 24,5 C 0,0 km/h
29.06.2018 22:00 21,3 C 65 % 1010,7 hPa 0,0 l/m 0,0 km/h O-SO 14,4 C 21,3 C 0,0 km/h
29.06.2018 23:00 20,2 C 69 % 1010,9 hPa 0,0 l/m 0,0 km/h O-SO 14,3 C 20,2 C 0,0 km/h
30.06.2018 00:00 19,4 C 72 % 1010,9 hPa 0,0 l/m 0,0 km/h O-SO 14,2 C 19,4 C 0,0 km/h
30.06.2018 01:00 18,4 C 76 % 1010,9 hPa 0,0 l/m 0,0 km/h O-SO 14,1 C 18,4 C 0,0 km/h
30.06.2018 02:00 17,5 C 79 % 1010,7 hPa 0,0 l/m 0,0 km/h O-NO 13,8 C 17,5 C 0,0 km/h
30.06.2018 03:00 17,4 C 80 % 1010,6 hPa 0,0 l/m 2,6 km/h O-SO 13,9 C 17,4 C 1,4 km/h
30.06.2018 04:00 17,5 C 80 % 1010,3 hPa 0,0 l/m 1,3 km/h NO 14,0 C 17,5 C 0,7 km/h
30.06.2018 05:00 17,1 C 82 % 1010,3 hPa 0,0 l/m 0,0 km/h O-NO 14,0 C 17,1 C 0,0 km/h
30.06.2018 06:00 17,5 C 82 % 1010,6 hPa 0,0 l/m 0,0 km/h O-SO 14,4 C 17,5 C 0,0 km/h
30.06.2018 07:00 19,8 C 78 % 1010,6 hPa 0,0 l/m 0,0 km/h S 15,8 C 19,8 C 0,0 km/h
30.06.2018 08:00 21,8 C 74 % 1010,8 hPa 0,0 l/m 0,0 km/h W 17,0 C 21,8 C 0,0 km/h
30.06.2018 09:00 22,9 C 71 % 1010,6 hPa 0,0 l/m 0,0 km/h NW 17,4 C 22,9 C 0,0 km/h
30.06.2018 10:00 24,5 C 67 % 1010,5 hPa 0,0 l/m 0,0 km/h N-NW 18,0 C 24,5 C 0,0 km/h
30.06.2018 11:00 26,6 C 62 % 1010,1 hPa 0,0 l/m 0,0 km/h W-SW 18,7 C 26,6 C 0,0 km/h
30.06.2018 12:00 28,3 C 57 % 1009,4 hPa 0,0 l/m 0,0 km/h W 18,9 C 28,3 C 0,0 km/h
30.06.2018 13:00 29,5 C 50 % 1008,8 hPa 0,0 l/m 22,0 km/h W 18,0 C 28,4 C 12,2 km/h
30.06.2018 14:00 30,7 C 45 % 1008,6 hPa 0,0 l/m 0,0 km/h N-NW 17,4 C 30,7 C 0,0 km/h
30.06.2018 15:00 30,9 C 42 % 1008,3 hPa 0,0 l/m 0,0 km/h N-NO 16,5 C 30,9 C 0,0 km/h
30.06.2018 16:00 31,9 C 40 % 1007,8 hPa 0,0 l/m 13,6 km/h N-NW 16,6 C 31,7 C 7,6 km/h
30.06.2018 17:00 31,5 C 40 % 1008,0 hPa 0,0 l/m 24,6 km/h N-NW 16,2 C 31,0 C 13,7 km/h
30.06.2018 18:00 30,9 C 40 % 1007,5 hPa 0,0 l/m 16,2 km/h N-NW 15,7 C 30,4 C 9,0 km/h
30.06.2018 19:00 30,1 C 42 % 1007,4 hPa 0,0 l/m 0,0 km/h W-NW 15,7 C 30,1 C 0,0 km/h
30.06.2018 20:00 28,4 C 45 % 1007,7 hPa 0,0 l/m 0,0 km/h N-NW 15,3 C 28,4 C 0,0 km/h
30.06.2018 21:00 24,8 C 57 % 1008,1 hPa 0,0 l/m 0,0 km/h NO 15,7 C 24,8 C 0,0 km/h
30.06.2018 22:00 23,0 C 57 % 1008,5 hPa 0,0 l/m 1,3 km/h O-NO 14,0 C 23,0 C 0,7 km/h
30.06.2018 23:00 24,9 C 52 % 1008,7 hPa 0,0 l/m 0,0 km/h O-NO 14,4 C 24,9 C 0,0 km/h
01.07.2018 00:00 23,4 C 55 % 1008,8 hPa 0,0 l/m 0,0 km/h O 13,8 C 23,4 C 0,0 km/h
01.07.2018 01:00 20,7 C 63 % 1009,2 hPa 0,0 l/m 0,0 km/h O-SO 13,4 C 20,7 C 0,0 km/h
01.07.2018 02:00 19,3 C 68 % 1009,3 hPa 0,0 l/m 0,0 km/h NW 13,2 C 19,3 C 0,0 km/h
01.07.2018 03:00 18,4 C 72 % 1009,4 hPa 0,0 l/m 0,0 km/h NW 13,3 C 18,4 C 0,0 km/h
01.07.2018 04:00 17,2 C 73 % 1009,6 hPa 0,0 l/m 0,0 km/h NW 12,3 C 17,2 C 0,0 km/h
01.07.2018 05:00 16,3 C 72 % 1010,1 hPa 0,0 l/m 0,0 km/h NW 11,2 C 16,3 C 0,0 km/h
01.07.2018 06:00 16,6 C 69 % 1010,5 hPa 0,0 l/m 0,0 km/h W-SW 10,9 C 16,6 C 0,0 km/h
01.07.2018 07:00 17,8 C 62 % 1010,8 hPa 0,0 l/m 0,0 km/h W 10,4 C 17,8 C 0,0 km/h
01.07.2018 08:00 19,3 C 59 % 1011,0 hPa 0,0 l/m 0,0 km/h W 11,1 C 19,3 C 0,0 km/h
01.07.2018 09:00 20,8 C 56 % 1010,9 hPa 0,0 l/m 1,3 km/h W 11,7 C 20,8 C 0,7 km/h
01.07.2018 10:00 22,5 C 54 % 1010,5 hPa 0,0 l/m 0,0 km/h W-SW 12,7 C 22,5 C 0,0 km/h
01.07.2018 11:00 24,9 C 51 % 1010,5 hPa 0,0 l/m 0,0 km/h W-NW 14,1 C 24,9 C 0,0 km/h
01.07.2018 12:00 26,9 C 47 % 1010,1 hPa 0,0 l/m 0,0 km/h W 14,6 C 26,9 C 0,0 km/h
01.07.2018 13:00 28,1 C 44 % 1009,6 hPa 0,0 l/m 17,5 km/h W 14,7 C 26,9 C 9,7 km/h
01.07.2018 14:00 28,9 C 44 % 1008,9 hPa 0,0 l/m 0,0 km/h N-NO 15,4 C 28,9 C 0,0 km/h
01.07.2018 15:00 31,0 C 41 % 1008,2 hPa 0,0 l/m 0,0 km/h N-NO 16,2 C 31,0 C 0,0 km/h
01.07.2018 16:00 31,9 C 37 % 1008,0 hPa 0,0 l/m 0,0 km/h N-NO 15,4 C 31,9 C 0,0 km/h
01.07.2018 17:00 31,3 C 38 % 1007,6 hPa 0,0 l/m 0,0 km/h N-NW 15,3 C 31,3 C 0,0 km/h
01.07.2018 18:00 30,5 C 38 % 1007,5 hPa 0,0 l/m 0,0 km/h NO 14,5 C 30,5 C 0,0 km/h
01.07.2018 19:00 29,8 C 39 % 1007,4 hPa 0,0 l/m 0,0 km/h NO 14,3 C 29,8 C 0,0 km/h
01.07.2018 20:00 27,8 C 40 % 1007,6 hPa 0,0 l/m 0,0 km/h O-NO 12,9 C 27,8 C 0,0 km/h
01.07.2018 21:00 25,8 C 42 % 1008,5 hPa 0,0 l/m 0,0 km/h O-SO 11,9 C 25,8 C 0,0 km/h
01.07.2018 22:00 23,6 C 48 % 1008,9 hPa 0,0 l/m 0,0 km/h O-NO 11,9 C 23,6 C 0,0 km/h
01.07.2018 23:00 22,4 C 50 % 1009,4 hPa 0,0 l/m 0,0 km/h O-NO 11,5 C 22,4 C 0,0 km/h
Min-Datum _ 26.06.18 01.07.18 30.06.18 - 25.06.18 - 28.06.18 26.06.18 25.06.18
_ Min-Zeit 05:53 16:53 19:53 - 00:53 - 05:53 05:53 00:53
Minimum _ 10,9 C 37 % 1007,4 hPa - 0,0 km/h - 7,4 C 10,9 C 0,0 km/h
Max-Datum _ 30.06.18 26.06.18 26.06.18 25.06.18 30.06.18 - 30.06.18 01.07.18 30.06.18
_ Max-Zeit 16:53 05:53 00:53 00:53 17:53 - 12:53 16:53 17:53
Maximum _ 31,9 C 82 % 1020,3 hPa 0,0 l/m 24,6 km/h
N-NW
- 18,9 C 31,9 C 13,7 km/h
N-NW
Durchschnitt _ 21,5 C 58 % 1014,4 hPa #0,0 l/m 2,8 km/h NO 12,5 C 21,3 C 1,5 km/h
www.sexauwetter.de